sensor_id;sensor_type;location;lat;lon;timestamp;P1;durP1;ratioP1;P2;durP2;ratioP2
11042;SDS011;5574;48.786;10.120;2023-01-06T00:00:05;0.50;;;0.50;;
11042;SDS011;5574;48.786;10.120;2023-01-06T00:02:32;0.50;;;0.50;;
11042;SDS011;5574;48.786;10.120;2023-01-06T00:04:59;0.80;;;0.80;;
11042;SDS011;5574;48.786;10.120;2023-01-06T00:07:26;1.40;;;0.93;;
11042;SDS011;5574;48.786;10.120;2023-01-06T00:10:00;0.50;;;0.50;;
11042;SDS011;5574;48.786;10.120;2023-01-06T00:12:27;0.60;;;0.60;;
11042;SDS011;5574;48.786;10.120;2023-01-06T00:14:53;1.67;;;0.73;;
11042;SDS011;5574;48.786;10.120;2023-01-06T00:17:20;1.80;;;1.50;;
11042;SDS011;5574;48.786;10.120;2023-01-06T00:19:47;1.23;;;1.13;;
11042;SDS011;5574;48.786;10.120;2023-01-06T00:22:14;1.93;;;1.30;;
11042;SDS011;5574;48.786;10.120;2023-01-06T00:24:41;1.73;;;1.63;;
11042;SDS011;5574;48.786;10.120;2023-01-06T00:27:09;1.87;;;1.50;;
11042;SDS011;5574;48.786;10.120;2023-01-06T00:29:36;2.83;;;1.73;;
11042;SDS011;5574;48.786;10.120;2023-01-06T00:32:02;2.00;;;1.40;;
11042;SDS011;5574;48.786;10.120;2023-01-06T00:34:29;2.43;;;1.80;;
11042;SDS011;5574;48.786;10.120;2023-01-06T00:36:56;3.37;;;2.37;;
11042;SDS011;5574;48.786;10.120;2023-01-06T00:39:23;3.00;;;2.70;;
11042;SDS011;5574;48.786;10.120;2023-01-06T00:41:49;2.40;;;2.20;;
11042;SDS011;5574;48.786;10.120;2023-01-06T00:44:29;3.43;;;2.60;;
11042;SDS011;5574;48.786;10.120;2023-01-06T00:46:55;2.70;;;2.50;;
11042;SDS011;5574;48.786;10.120;2023-01-06T00:49:22;3.30;;;2.23;;
11042;SDS011;5574;48.786;10.120;2023-01-06T00:51:49;3.17;;;2.50;;
11042;SDS011;5574;48.786;10.120;2023-01-06T00:54:16;3.37;;;2.70;;
11042;SDS011;5574;48.786;10.120;2023-01-06T00:56:45;3.03;;;2.73;;
11042;SDS011;5574;48.786;10.120;2023-01-06T00:59:14;3.63;;;2.30;;
11042;SDS011;5574;48.786;10.120;2023-01-06T01:01:44;2.67;;;2.40;;
11042;SDS011;5574;48.786;10.120;2023-01-06T01:04:12;2.70;;;2.37;;
11042;SDS011;5574;48.786;10.120;2023-01-06T01:06:39;4.73;;;2.50;;
11042;SDS011;5574;48.786;10.120;2023-01-06T01:09:07;2.73;;;2.30;;
11042;SDS011;5574;48.786;10.120;2023-01-06T01:11:35;3.83;;;2.73;;
11042;SDS011;5574;48.786;10.120;2023-01-06T01:14:20;3.27;;;2.20;;
11042;SDS011;5574;48.786;10.120;2023-01-06T01:16:48;3.93;;;2.90;;
11042;SDS011;5574;48.786;10.120;2023-01-06T01:19:15;3.00;;;2.70;;
11042;SDS011;5574;48.786;10.120;2023-01-06T01:21:42;2.90;;;2.60;;
11042;SDS011;5574;48.786;10.120;2023-01-06T01:24:08;2.90;;;2.50;;
11042;SDS011;5574;48.786;10.120;2023-01-06T01:26:36;3.03;;;2.70;;
11042;SDS011;5574;48.786;10.120;2023-01-06T01:29:03;3.70;;;2.20;;
11042;SDS011;5574;48.786;10.120;2023-01-06T01:31:30;5.37;;;2.70;;
11042;SDS011;5574;48.786;10.120;2023-01-06T01:33:58;3.70;;;2.67;;
11042;SDS011;5574;48.786;10.120;2023-01-06T01:36:25;3.27;;;2.90;;
11042;SDS011;5574;48.786;10.120;2023-01-06T01:38:54;2.90;;;2.60;;
11042;SDS011;5574;48.786;10.120;2023-01-06T01:41:21;3.03;;;2.70;;
11042;SDS011;5574;48.786;10.120;2023-01-06T01:43:49;2.73;;;2.53;;
11042;SDS011;5574;48.786;10.120;2023-01-06T01:46:18;2.80;;;2.60;;
11042;SDS011;5574;48.786;10.120;2023-01-06T01:48:48;3.27;;;2.50;;
11042;SDS011;5574;48.786;10.120;2023-01-06T01:51:18;3.40;;;3.00;;
11042;SDS011;5574;48.786;10.120;2023-01-06T01:53:50;3.00;;;2.73;;
11042;SDS011;5574;48.786;10.120;2023-01-06T01:56:21;3.50;;;3.20;;
11042;SDS011;5574;48.786;10.120;2023-01-06T01:58:52;3.30;;;3.00;;
11042;SDS011;5574;48.786;10.120;2023-01-06T02:01:21;3.23;;;2.83;;
11042;SDS011;5574;48.786;10.120;2023-01-06T02:03:48;4.93;;;3.03;;
11042;SDS011;5574;48.786;10.120;2023-01-06T02:06:17;4.53;;;3.33;;
11042;SDS011;5574;48.786;10.120;2023-01-06T02:08:48;5.10;;;3.00;;
11042;SDS011;5574;48.786;10.120;2023-01-06T02:11:22;3.77;;;3.27;;
11042;SDS011;5574;48.786;10.120;2023-01-06T02:13:52;3.50;;;3.20;;
11042;SDS011;5574;48.786;10.120;2023-01-06T02:16:27;3.83;;;3.43;;
11042;SDS011;5574;48.786;10.120;2023-01-06T02:19:01;5.23;;;3.53;;
11042;SDS011;5574;48.786;10.120;2023-01-06T02:21:45;3.20;;;2.90;;
11042;SDS011;5574;48.786;10.120;2023-01-06T02:24:36;4.13;;;3.20;;
11042;SDS011;5574;48.786;10.120;2023-01-06T02:27:32;2.97;;;2.70;;
11042;SDS011;5574;48.786;10.120;2023-01-06T02:30:39;3.40;;;3.10;;
11042;SDS011;5574;48.786;10.120;2023-01-06T02:33:20;3.57;;;3.10;;
11042;SDS011;5574;48.786;10.120;2023-01-06T02:35:55;3.23;;;2.93;;
11042;SDS011;5574;48.786;10.120;2023-01-06T02:38:34;4.37;;;3.10;;
11042;SDS011;5574;48.786;10.120;2023-01-06T02:41:11;3.47;;;2.90;;
11042;SDS011;5574;48.786;10.120;2023-01-06T02:43:54;2.90;;;2.70;;
11042;SDS011;5574;48.786;10.120;2023-01-06T02:46:36;4.07;;;3.03;;
11042;SDS011;5574;48.786;10.120;2023-01-06T02:49:25;3.00;;;2.70;;
11042;SDS011;5574;48.786;10.120;2023-01-06T02:51:57;4.50;;;3.00;;
11042;SDS011;5574;48.786;10.120;2023-01-06T02:54:29;3.57;;;3.20;;
11042;SDS011;5574;48.786;10.120;2023-01-06T02:57:05;4.23;;;3.00;;
11042;SDS011;5574;48.786;10.120;2023-01-06T02:59:40;4.03;;;3.63;;
11042;SDS011;5574;48.786;10.120;2023-01-06T03:02:11;3.40;;;3.10;;
11042;SDS011;5574;48.786;10.120;2023-01-06T03:04:40;5.13;;;3.50;;
11042;SDS011;5574;48.786;10.120;2023-01-06T03:07:10;4.37;;;3.60;;
11042;SDS011;5574;48.786;10.120;2023-01-06T03:09:39;3.80;;;3.43;;
11042;SDS011;5574;48.786;10.120;2023-01-06T03:12:07;3.87;;;3.53;;
11042;SDS011;5574;48.786;10.120;2023-01-06T03:14:42;4.97;;;3.90;;
11042;SDS011;5574;48.786;10.120;2023-01-06T03:17:12;4.33;;;3.80;;
11042;SDS011;5574;48.786;10.120;2023-01-06T03:19:40;4.07;;;3.73;;
11042;SDS011;5574;48.786;10.120;2023-01-06T03:22:07;4.33;;;3.93;;
11042;SDS011;5574;48.786;10.120;2023-01-06T03:24:34;4.50;;;4.00;;
11042;SDS011;5574;48.786;10.120;2023-01-06T03:27:03;3.97;;;3.67;;
11042;SDS011;5574;48.786;10.120;2023-01-06T03:29:30;3.87;;;3.50;;
11042;SDS011;5574;48.786;10.120;2023-01-06T03:31:59;3.87;;;3.57;;
11042;SDS011;5574;48.786;10.120;2023-01-06T03:34:32;4.37;;;3.90;;
11042;SDS011;5574;48.786;10.120;2023-01-06T03:37:10;4.87;;;4.10;;
11042;SDS011;5574;48.786;10.120;2023-01-06T03:39:47;4.33;;;3.93;;
11042;SDS011;5574;48.786;10.120;2023-01-06T03:42:21;4.27;;;3.87;;
11042;SDS011;5574;48.786;10.120;2023-01-06T03:45:13;4.60;;;3.90;;
11042;SDS011;5574;48.786;10.120;2023-01-06T03:47:51;5.17;;;4.10;;
11042;SDS011;5574;48.786;10.120;2023-01-06T03:50:24;5.70;;;4.00;;
11042;SDS011;5574;48.786;10.120;2023-01-06T03:53:06;4.70;;;3.83;;
11042;SDS011;5574;48.786;10.120;2023-01-06T03:55:41;4.47;;;4.03;;
11042;SDS011;5574;48.786;10.120;2023-01-06T03:58:11;4.50;;;3.70;;
11042;SDS011;5574;48.786;10.120;2023-01-06T04:00:39;4.30;;;3.90;;
11042;SDS011;5574;48.786;10.120;2023-01-06T04:03:08;4.23;;;3.83;;
11042;SDS011;5574;48.786;10.120;2023-01-06T04:05:39;5.00;;;3.43;;
11042;SDS011;5574;48.786;10.120;2023-01-06T04:08:06;4.43;;;4.03;;
11042;SDS011;5574;48.786;10.120;2023-01-06T04:10:32;4.57;;;3.83;;
11042;SDS011;5574;48.786;10.120;2023-01-06T04:12:59;4.33;;;3.93;;
11042;SDS011;5574;48.786;10.120;2023-01-06T04:15:25;4.63;;;4.00;;
11042;SDS011;5574;48.786;10.120;2023-01-06T04:17:53;4.53;;;4.13;;
11042;SDS011;5574;48.786;10.120;2023-01-06T04:20:20;5.63;;;4.53;;
11042;SDS011;5574;48.786;10.120;2023-01-06T04:22:51;4.57;;;3.93;;
11042;SDS011;5574;48.786;10.120;2023-01-06T04:25:18;4.83;;;4.37;;
11042;SDS011;5574;48.786;10.120;2023-01-06T04:27:45;4.87;;;4.20;;
11042;SDS011;5574;48.786;10.120;2023-01-06T04:30:12;5.03;;;4.13;;
11042;SDS011;5574;48.786;10.120;2023-01-06T04:32:38;4.20;;;3.80;;
11042;SDS011;5574;48.786;10.120;2023-01-06T04:35:05;4.03;;;3.67;;
11042;SDS011;5574;48.786;10.120;2023-01-06T04:37:33;4.30;;;3.90;;
11042;SDS011;5574;48.786;10.120;2023-01-06T04:40:01;6.13;;;4.37;;
11042;SDS011;5574;48.786;10.120;2023-01-06T04:42:29;5.47;;;4.00;;
11042;SDS011;5574;48.786;10.120;2023-01-06T04:45:16;4.30;;;3.90;;
11042;SDS011;5574;48.786;10.120;2023-01-06T04:47:43;5.63;;;4.30;;
11042;SDS011;5574;48.786;10.120;2023-01-06T04:50:10;4.80;;;4.40;;
11042;SDS011;5574;48.786;10.120;2023-01-06T04:52:36;5.40;;;3.60;;
11042;SDS011;5574;48.786;10.120;2023-01-06T04:55:05;4.67;;;4.20;;
11042;SDS011;5574;48.786;10.120;2023-01-06T04:57:32;4.90;;;4.43;;
11042;SDS011;5574;48.786;10.120;2023-01-06T04:59:59;4.63;;;4.23;;
11042;SDS011;5574;48.786;10.120;2023-01-06T05:02:26;6.07;;;4.40;;
11042;SDS011;5574;48.786;10.120;2023-01-06T05:04:52;4.10;;;3.77;;
11042;SDS011;5574;48.786;10.120;2023-01-06T05:07:19;4.60;;;4.20;;
11042;SDS011;5574;48.786;10.120;2023-01-06T05:09:46;4.30;;;3.80;;
11042;SDS011;5574;48.786;10.120;2023-01-06T05:12:14;5.30;;;4.23;;
11042;SDS011;5574;48.786;10.120;2023-01-06T05:14:40;4.50;;;4.10;;
11042;SDS011;5574;48.786;10.120;2023-01-06T05:17:07;3.90;;;3.23;;
11042;SDS011;5574;48.786;10.120;2023-01-06T05:19:34;4.23;;;3.87;;
11042;SDS011;5574;48.786;10.120;2023-01-06T05:22:00;4.20;;;3.80;;
11042;SDS011;5574;48.786;10.120;2023-01-06T05:24:27;4.57;;;3.90;;
11042;SDS011;5574;48.786;10.120;2023-01-06T05:26:54;4.30;;;3.77;;
11042;SDS011;5574;48.786;10.120;2023-01-06T05:29:22;5.43;;;4.30;;
11042;SDS011;5574;48.786;10.120;2023-01-06T05:31:48;4.20;;;3.80;;
11042;SDS011;5574;48.786;10.120;2023-01-06T05:34:15;4.30;;;3.90;;
11042;SDS011;5574;48.786;10.120;2023-01-06T05:36:42;4.73;;;3.73;;
11042;SDS011;5574;48.786;10.120;2023-01-06T05:39:08;4.23;;;3.83;;
11042;SDS011;5574;48.786;10.120;2023-01-06T05:41:35;4.17;;;3.77;;
11042;SDS011;5574;48.786;10.120;2023-01-06T05:44:02;3.90;;;3.43;;
11042;SDS011;5574;48.786;10.120;2023-01-06T05:46:30;5.27;;;3.97;;
11042;SDS011;5574;48.786;10.120;2023-01-06T05:48:58;4.50;;;4.10;;
11042;SDS011;5574;48.786;10.120;2023-01-06T05:51:24;4.60;;;4.10;;
11042;SDS011;5574;48.786;10.120;2023-01-06T05:53:51;4.30;;;3.90;;
11042;SDS011;5574;48.786;10.120;2023-01-06T05:56:19;4.17;;;3.77;;
11042;SDS011;5574;48.786;10.120;2023-01-06T05:58:48;4.83;;;3.60;;
11042;SDS011;5574;48.786;10.120;2023-01-06T06:01:17;4.87;;;3.77;;
11042;SDS011;5574;48.786;10.120;2023-01-06T06:03:47;5.37;;;3.90;;
11042;SDS011;5574;48.786;10.120;2023-01-06T06:06:14;4.43;;;3.90;;
11042;SDS011;5574;48.786;10.120;2023-01-06T06:08:41;4.93;;;3.87;;
11042;SDS011;5574;48.786;10.120;2023-01-06T06:11:08;4.30;;;3.90;;
11042;SDS011;5574;48.786;10.120;2023-01-06T06:13:36;4.10;;;3.70;;
11042;SDS011;5574;48.786;10.120;2023-01-06T06:16:05;3.63;;;3.33;;
11042;SDS011;5574;48.786;10.120;2023-01-06T06:18:33;4.50;;;4.03;;
11042;SDS011;5574;48.786;10.120;2023-01-06T06:21:06;3.93;;;3.47;;
11042;SDS011;5574;48.786;10.120;2023-01-06T06:23:32;4.03;;;3.67;;
11042;SDS011;5574;48.786;10.120;2023-01-06T06:25:59;4.00;;;3.53;;
11042;SDS011;5574;48.786;10.120;2023-01-06T06:28:28;3.90;;;3.57;;
11042;SDS011;5574;48.786;10.120;2023-01-06T06:31:01;3.53;;;3.23;;
11042;SDS011;5574;48.786;10.120;2023-01-06T06:33:28;4.83;;;4.00;;
11042;SDS011;5574;48.786;10.120;2023-01-06T06:35:55;4.60;;;3.50;;
11042;SDS011;5574;48.786;10.120;2023-01-06T06:38:24;4.40;;;3.83;;
11042;SDS011;5574;48.786;10.120;2023-01-06T06:40:51;4.00;;;3.60;;
11042;SDS011;5574;48.786;10.120;2023-01-06T06:43:18;4.10;;;3.70;;
11042;SDS011;5574;48.786;10.120;2023-01-06T06:45:45;3.50;;;3.20;;
11042;SDS011;5574;48.786;10.120;2023-01-06T06:48:13;3.80;;;3.03;;
11042;SDS011;5574;48.786;10.120;2023-01-06T06:50:40;3.73;;;3.30;;
11042;SDS011;5574;48.786;10.120;2023-01-06T06:53:07;7.17;;;3.20;;
11042;SDS011;5574;48.786;10.120;2023-01-06T06:55:35;3.67;;;3.33;;
11042;SDS011;5574;48.786;10.120;2023-01-06T06:58:01;6.40;;;3.13;;
11042;SDS011;5574;48.786;10.120;2023-01-06T07:00:28;8.57;;;3.23;;
11042;SDS011;5574;48.786;10.120;2023-01-06T07:02:55;4.73;;;3.67;;
11042;SDS011;5574;48.786;10.120;2023-01-06T07:05:21;4.70;;;3.23;;
11042;SDS011;5574;48.786;10.120;2023-01-06T07:07:49;5.83;;;3.50;;
11042;SDS011;5574;48.786;10.120;2023-01-06T07:10:16;7.60;;;3.07;;
11042;SDS011;5574;48.786;10.120;2023-01-06T07:12:44;6.00;;;3.10;;
11042;SDS011;5574;48.786;10.120;2023-01-06T07:15:10;12.70;;;2.97;;
11042;SDS011;5574;48.786;10.120;2023-01-06T07:17:37;15.60;;;3.60;;
11042;SDS011;5574;48.786;10.120;2023-01-06T07:20:06;12.30;;;3.10;;
11042;SDS011;5574;48.786;10.120;2023-01-06T07:22:35;10.70;;;2.90;;
11042;SDS011;5574;48.786;10.120;2023-01-06T07:25:02;10.17;;;3.33;;
11042;SDS011;5574;48.786;10.120;2023-01-06T07:27:30;8.20;;;2.83;;
11042;SDS011;5574;48.786;10.120;2023-01-06T07:29:58;7.53;;;2.63;;
11042;SDS011;5574;48.786;10.120;2023-01-06T07:32:24;6.90;;;3.10;;
11042;SDS011;5574;48.786;10.120;2023-01-06T07:34:51;2.90;;;2.67;;
11042;SDS011;5574;48.786;10.120;2023-01-06T07:37:18;9.43;;;2.80;;
11042;SDS011;5574;48.786;10.120;2023-01-06T07:39:44;10.13;;;3.17;;
11042;SDS011;5574;48.786;10.120;2023-01-06T07:42:11;9.33;;;3.03;;
11042;SDS011;5574;48.786;10.120;2023-01-06T07:44:38;10.83;;;2.77;;
11042;SDS011;5574;48.786;10.120;2023-01-06T07:47:06;6.27;;;3.00;;
11042;SDS011;5574;48.786;10.120;2023-01-06T07:49:34;5.13;;;3.33;;
11042;SDS011;5574;48.786;10.120;2023-01-06T07:52:01;7.47;;;3.10;;
11042;SDS011;5574;48.786;10.120;2023-01-06T07:54:28;3.53;;;3.00;;
11042;SDS011;5574;48.786;10.120;2023-01-06T07:56:55;12.10;;;3.60;;
11042;SDS011;5574;48.786;10.120;2023-01-06T07:59:21;4.83;;;3.20;;
11042;SDS011;5574;48.786;10.120;2023-01-06T08:01:48;5.93;;;2.80;;
11042;SDS011;5574;48.786;10.120;2023-01-06T08:04:16;8.17;;;3.13;;
11042;SDS011;5574;48.786;10.120;2023-01-06T08:06:43;11.63;;;3.30;;
11042;SDS011;5574;48.786;10.120;2023-01-06T08:09:09;8.87;;;4.23;;
11042;SDS011;5574;48.786;10.120;2023-01-06T08:11:36;5.63;;;3.77;;
11042;SDS011;5574;48.786;10.120;2023-01-06T08:14:03;5.03;;;3.63;;
11042;SDS011;5574;48.786;10.120;2023-01-06T08:16:29;6.30;;;3.47;;
11042;SDS011;5574;48.786;10.120;2023-01-06T08:18:56;3.80;;;3.13;;
11042;SDS011;5574;48.786;10.120;2023-01-06T08:21:24;5.53;;;3.47;;
11042;SDS011;5574;48.786;10.120;2023-01-06T08:23:51;3.80;;;3.50;;
11042;SDS011;5574;48.786;10.120;2023-01-06T08:26:17;3.90;;;3.00;;
11042;SDS011;5574;48.786;10.120;2023-01-06T08:28:44;3.23;;;2.93;;
11042;SDS011;5574;48.786;10.120;2023-01-06T08:31:11;6.30;;;3.20;;
11042;SDS011;5574;48.786;10.120;2023-01-06T08:33:39;3.33;;;3.03;;
11042;SDS011;5574;48.786;10.120;2023-01-06T08:36:07;6.60;;;5.97;;
11042;SDS011;5574;48.786;10.120;2023-01-06T08:38:37;5.83;;;2.90;;
11042;SDS011;5574;48.786;10.120;2023-01-06T08:41:04;4.97;;;3.20;;
11042;SDS011;5574;48.786;10.120;2023-01-06T08:43:32;3.93;;;3.53;;
11042;SDS011;5574;48.786;10.120;2023-01-06T08:46:00;5.20;;;3.00;;
11042;SDS011;5574;48.786;10.120;2023-01-06T08:48:28;4.17;;;3.30;;
11042;SDS011;5574;48.786;10.120;2023-01-06T08:50:57;6.07;;;3.10;;
11042;SDS011;5574;48.786;10.120;2023-01-06T08:53:27;7.50;;;3.83;;
11042;SDS011;5574;48.786;10.120;2023-01-06T08:55:55;5.47;;;3.83;;
11042;SDS011;5574;48.786;10.120;2023-01-06T08:58:22;4.57;;;3.20;;
11042;SDS011;5574;48.786;10.120;2023-01-06T09:00:49;3.93;;;3.00;;
11042;SDS011;5574;48.786;10.120;2023-01-06T09:03:16;3.53;;;3.23;;
11042;SDS011;5574;48.786;10.120;2023-01-06T09:05:43;3.93;;;3.50;;
11042;SDS011;5574;48.786;10.120;2023-01-06T09:08:16;6.27;;;4.03;;
11042;SDS011;5574;48.786;10.120;2023-01-06T09:10:43;4.40;;;4.00;;
11042;SDS011;5574;48.786;10.120;2023-01-06T09:13:11;4.37;;;3.97;;
11042;SDS011;5574;48.786;10.120;2023-01-06T09:15:38;7.73;;;5.80;;
11042;SDS011;5574;48.786;10.120;2023-01-06T09:18:05;7.10;;;6.40;;
11042;SDS011;5574;48.786;10.120;2023-01-06T09:20:33;6.13;;;5.53;;
11042;SDS011;5574;48.786;10.120;2023-01-06T09:22:59;4.93;;;4.43;;
11042;SDS011;5574;48.786;10.120;2023-01-06T09:25:26;7.60;;;6.10;;
11042;SDS011;5574;48.786;10.120;2023-01-06T09:27:53;6.97;;;6.27;;
11042;SDS011;5574;48.786;10.120;2023-01-06T09:30:21;6.13;;;5.60;;
11042;SDS011;5574;48.786;10.120;2023-01-06T09:32:49;6.07;;;5.43;;
11042;SDS011;5574;48.786;10.120;2023-01-06T09:35:16;4.50;;;4.10;;
11042;SDS011;5574;48.786;10.120;2023-01-06T09:37:42;5.13;;;4.63;;
11042;SDS011;5574;48.786;10.120;2023-01-06T09:40:10;5.60;;;5.10;;
11042;SDS011;5574;48.786;10.120;2023-01-06T09:42:44;5.07;;;4.60;;
11042;SDS011;5574;48.786;10.120;2023-01-06T09:45:26;4.83;;;4.43;;
11042;SDS011;5574;48.786;10.120;2023-01-06T09:47:59;4.50;;;4.10;;
11042;SDS011;5574;48.786;10.120;2023-01-06T09:50:29;4.67;;;4.27;;
11042;SDS011;5574;48.786;10.120;2023-01-06T09:53:00;4.67;;;4.27;;
11042;SDS011;5574;48.786;10.120;2023-01-06T09:55:31;6.20;;;5.63;;
11042;SDS011;5574;48.786;10.120;2023-01-06T09:58:03;3.20;;;2.90;;
11042;SDS011;5574;48.786;10.120;2023-01-06T10:00:35;2.20;;;2.10;;
11042;SDS011;5574;48.786;10.120;2023-01-06T10:03:07;2.67;;;2.10;;
11042;SDS011;5574;48.786;10.120;2023-01-06T10:05:40;3.50;;;3.10;;
11042;SDS011;5574;48.786;10.120;2023-01-06T10:08:23;3.20;;;3.00;;
11042;SDS011;5574;48.786;10.120;2023-01-06T10:11:07;2.50;;;2.30;;
11042;SDS011;5574;48.786;10.120;2023-01-06T10:13:41;3.30;;;2.57;;
11042;SDS011;5574;48.786;10.120;2023-01-06T10:16:21;3.40;;;3.03;;
11042;SDS011;5574;48.786;10.120;2023-01-06T10:18:57;2.60;;;2.40;;
11042;SDS011;5574;48.786;10.120;2023-01-06T10:21:35;1.80;;;1.70;;
11042;SDS011;5574;48.786;10.120;2023-01-06T10:24:18;1.47;;;1.37;;
11042;SDS011;5574;48.786;10.120;2023-01-06T10:26:54;2.27;;;2.10;;
11042;SDS011;5574;48.786;10.120;2023-01-06T10:29:22;2.13;;;1.93;;
11042;SDS011;5574;48.786;10.120;2023-01-06T10:31:55;1.80;;;1.70;;
11042;SDS011;5574;48.786;10.120;2023-01-06T10:34:23;4.30;;;3.47;;
11042;SDS011;5574;48.786;10.120;2023-01-06T10:36:53;1.83;;;1.70;;
11042;SDS011;5574;48.786;10.120;2023-01-06T10:39:26;1.63;;;1.53;;
11042;SDS011;5574;48.786;10.120;2023-01-06T10:41:56;1.73;;;1.30;;
11042;SDS011;5574;48.786;10.120;2023-01-06T10:44:42;0.70;;;0.70;;
11042;SDS011;5574;48.786;10.120;2023-01-06T10:47:10;0.80;;;0.80;;
11042;SDS011;5574;48.786;10.120;2023-01-06T10:49:41;0.40;;;0.40;;
11042;SDS011;5574;48.786;10.120;2023-01-06T10:52:07;0.67;;;0.67;;
11042;SDS011;5574;48.786;10.120;2023-01-06T10:54:35;1.40;;;0.90;;
11042;SDS011;5574;48.786;10.120;2023-01-06T10:57:04;1.20;;;1.10;;
11042;SDS011;5574;48.786;10.120;2023-01-06T11:02:35;1.43;;;1.20;;
11042;SDS011;5574;48.786;10.120;2023-01-06T11:05:11;1.23;;;1.10;;
11042;SDS011;5574;48.786;10.120;2023-01-06T11:07:44;0.90;;;0.70;;
11042;SDS011;5574;48.786;10.120;2023-01-06T11:10:17;0.70;;;0.70;;
11042;SDS011;5574;48.786;10.120;2023-01-06T11:12:51;0.93;;;0.90;;
11042;SDS011;5574;48.786;10.120;2023-01-06T11:15:19;0.90;;;0.90;;
11042;SDS011;5574;48.786;10.120;2023-01-06T11:17:48;1.63;;;1.10;;
11042;SDS011;5574;48.786;10.120;2023-01-06T11:23:13;1.20;;;1.10;;
11042;SDS011;5574;48.786;10.120;2023-01-06T11:25:58;2.00;;;1.80;;
11042;SDS011;5574;48.786;10.120;2023-01-06T11:28:37;2.03;;;1.50;;
11042;SDS011;5574;48.786;10.120;2023-01-06T11:31:05;1.27;;;1.17;;
11042;SDS011;5574;48.786;10.120;2023-01-06T11:33:36;1.43;;;1.33;;
11042;SDS011;5574;48.786;10.120;2023-01-06T11:36:12;1.63;;;1.53;;
11042;SDS011;5574;48.786;10.120;2023-01-06T11:38:41;1.50;;;1.40;;
11042;SDS011;5574;48.786;10.120;2023-01-06T11:41:10;1.77;;;1.40;;
11042;SDS011;5574;48.786;10.120;2023-01-06T11:43:44;1.47;;;1.37;;
11042;SDS011;5574;48.786;10.120;2023-01-06T11:46:12;1.90;;;1.63;;
11042;SDS011;5574;48.786;10.120;2023-01-06T11:48:42;0.90;;;0.90;;
11042;SDS011;5574;48.786;10.120;2023-01-06T11:51:13;1.43;;;1.33;;
11042;SDS011;5574;48.786;10.120;2023-01-06T11:53:53;5.50;;;3.57;;
11042;SDS011;5574;48.786;10.120;2023-01-06T11:56:21;4.27;;;3.07;;
11042;SDS011;5574;48.786;10.120;2023-01-06T11:58:51;2.50;;;1.97;;
11042;SDS011;5574;48.786;10.120;2023-01-06T12:01:26;2.53;;;2.23;;
11042;SDS011;5574;48.786;10.120;2023-01-06T12:04:01;4.17;;;3.10;;
11042;SDS011;5574;48.786;10.120;2023-01-06T12:06:37;5.13;;;3.40;;
11042;SDS011;5574;48.786;10.120;2023-01-06T12:09:09;3.20;;;2.90;;
11042;SDS011;5574;48.786;10.120;2023-01-06T12:11:41;3.50;;;3.20;;
11042;SDS011;5574;48.786;10.120;2023-01-06T12:14:11;3.23;;;2.93;;
11042;SDS011;5574;48.786;10.120;2023-01-06T12:16:43;9.77;;;6.00;;
11042;SDS011;5574;48.786;10.120;2023-01-06T12:19:21;7.63;;;6.80;;
11042;SDS011;5574;48.786;10.120;2023-01-06T12:21:51;27.73;;;18.87;;
11042;SDS011;5574;48.786;10.120;2023-01-06T12:24:19;27.37;;;20.37;;
11042;SDS011;5574;48.786;10.120;2023-01-06T12:26:47;16.90;;;12.60;;
11042;SDS011;5574;48.786;10.120;2023-01-06T12:29:15;10.10;;;6.80;;
11042;SDS011;5574;48.786;10.120;2023-01-06T12:31:47;6.23;;;5.37;;
11042;SDS011;5574;48.786;10.120;2023-01-06T12:34:23;2.60;;;2.40;;
11042;SDS011;5574;48.786;10.120;2023-01-06T12:36:58;2.87;;;2.40;;
11042;SDS011;5574;48.786;10.120;2023-01-06T12:39:37;2.07;;;1.90;;
11042;SDS011;5574;48.786;10.120;2023-01-06T12:42:12;2.03;;;1.83;;
11042;SDS011;5574;48.786;10.120;2023-01-06T12:44:48;1.80;;;1.70;;
11042;SDS011;5574;48.786;10.120;2023-01-06T12:47:21;2.30;;;2.10;;
11042;SDS011;5574;48.786;10.120;2023-01-06T12:49:54;2.93;;;1.97;;
11042;SDS011;5574;48.786;10.120;2023-01-06T12:52:24;2.00;;;1.70;;
11042;SDS011;5574;48.786;10.120;2023-01-06T12:54:55;1.70;;;1.60;;
11042;SDS011;5574;48.786;10.120;2023-01-06T12:57:28;2.37;;;1.40;;
11042;SDS011;5574;48.786;10.120;2023-01-06T13:00:16;1.40;;;1.30;;
11042;SDS011;5574;48.786;10.120;2023-01-06T13:02:53;1.63;;;1.53;;
11042;SDS011;5574;48.786;10.120;2023-01-06T13:05:50;2.07;;;1.60;;
11042;SDS011;5574;48.786;10.120;2023-01-06T13:08:28;5.80;;;4.43;;
11042;SDS011;5574;48.786;10.120;2023-01-06T13:11:12;3.27;;;2.97;;
11042;SDS011;5574;48.786;10.120;2023-01-06T13:13:47;1.33;;;1.30;;
11042;SDS011;5574;48.786;10.120;2023-01-06T13:16:23;1.23;;;1.23;;
11042;SDS011;5574;48.786;10.120;2023-01-06T13:18:57;1.63;;;1.53;;
11042;SDS011;5574;48.786;10.120;2023-01-06T13:21:32;2.03;;;1.77;;
11042;SDS011;5574;48.786;10.120;2023-01-06T13:24:05;1.40;;;1.30;;
11042;SDS011;5574;48.786;10.120;2023-01-06T13:26:59;1.30;;;1.20;;
11042;SDS011;5574;48.786;10.120;2023-01-06T13:29:52;1.60;;;1.50;;
11042;SDS011;5574;48.786;10.120;2023-01-06T13:32:46;1.37;;;1.27;;
11042;SDS011;5574;48.786;10.120;2023-01-06T13:35:28;0.70;;;0.70;;
11042;SDS011;5574;48.786;10.120;2023-01-06T13:38:18;0.97;;;0.60;;
11042;SDS011;5574;48.786;10.120;2023-01-06T13:40:55;0.70;;;0.70;;
11042;SDS011;5574;48.786;10.120;2023-01-06T13:43:24;0.80;;;0.80;;
11042;SDS011;5574;48.786;10.120;2023-01-06T13:45:54;0.60;;;0.60;;
11042;SDS011;5574;48.786;10.120;2023-01-06T13:48:25;0.70;;;0.70;;
11042;SDS011;5574;48.786;10.120;2023-01-06T13:50:57;0.40;;;0.40;;
11042;SDS011;5574;48.786;10.120;2023-01-06T13:53:25;0.60;;;0.60;;
11042;SDS011;5574;48.786;10.120;2023-01-06T13:58:50;0.70;;;0.70;;
11042;SDS011;5574;48.786;10.120;2023-01-06T14:01:37;0.70;;;0.70;;
11042;SDS011;5574;48.786;10.120;2023-01-06T14:07:12;0.50;;;0.50;;
11042;SDS011;5574;48.786;10.120;2023-01-06T14:09:46;0.80;;;0.73;;
11042;SDS011;5574;48.786;10.120;2023-01-06T14:12:15;0.50;;;0.50;;
11042;SDS011;5574;48.786;10.120;2023-01-06T14:14:53;0.53;;;0.53;;
11042;SDS011;5574;48.786;10.120;2023-01-06T14:17:25;0.87;;;0.40;;
11042;SDS011;5574;48.786;10.120;2023-01-06T14:19:54;0.47;;;0.47;;
11042;SDS011;5574;48.786;10.120;2023-01-06T14:22:22;0.43;;;0.43;;
11042;SDS011;5574;48.786;10.120;2023-01-06T14:24:53;0.47;;;0.47;;
11042;SDS011;5574;48.786;10.120;2023-01-06T14:30:30;0.77;;;0.50;;
11042;SDS011;5574;48.786;10.120;2023-01-06T14:33:00;0.40;;;0.40;;
11042;SDS011;5574;48.786;10.120;2023-01-06T14:35:47;0.47;;;0.47;;
11042;SDS011;5574;48.786;10.120;2023-01-06T14:38:20;0.53;;;0.53;;
11042;SDS011;5574;48.786;10.120;2023-01-06T14:40:54;0.40;;;0.40;;
11042;SDS011;5574;48.786;10.120;2023-01-06T14:43:26;0.40;;;0.40;;
11042;SDS011;5574;48.786;10.120;2023-01-06T14:46:07;1.20;;;1.10;;
11042;SDS011;5574;48.786;10.120;2023-01-06T14:48:43;0.90;;;0.90;;
11042;SDS011;5574;48.786;10.120;2023-01-06T14:51:15;0.80;;;0.80;;
11042;SDS011;5574;48.786;10.120;2023-01-06T14:53:45;1.20;;;1.10;;
11042;SDS011;5574;48.786;10.120;2023-01-06T14:56:19;1.33;;;1.10;;
11042;SDS011;5574;48.786;10.120;2023-01-06T14:58:47;1.70;;;1.40;;
11042;SDS011;5574;48.786;10.120;2023-01-06T15:01:20;3.90;;;1.70;;
11042;SDS011;5574;48.786;10.120;2023-01-06T15:03:52;1.57;;;1.47;;
11042;SDS011;5574;48.786;10.120;2023-01-06T15:06:22;2.13;;;1.93;;
11042;SDS011;5574;48.786;10.120;2023-01-06T15:08:50;2.40;;;1.70;;
11042;SDS011;5574;48.786;10.120;2023-01-06T15:11:25;2.43;;;2.23;;
11042;SDS011;5574;48.786;10.120;2023-01-06T15:13:55;1.70;;;1.60;;
11042;SDS011;5574;48.786;10.120;2023-01-06T15:16:24;1.93;;;1.43;;
11042;SDS011;5574;48.786;10.120;2023-01-06T15:18:57;1.70;;;1.60;;
11042;SDS011;5574;48.786;10.120;2023-01-06T15:21:24;1.50;;;1.40;;
11042;SDS011;5574;48.786;10.120;2023-01-06T15:23:51;1.57;;;1.30;;